Time;durP1;ratioP1;P1;durP2;ratioP2;P2;SDS_P1;SDS_P2;PMS_P1;PMS_P2;Temp;Humidity;BMP_temperature;BMP_pressure;BME280_temperature;BME280_humidity;BME280_pressure;Samples;Min_cycle;Max_cycle;Signal;HPM_P1;HPM_P2
2023/05/05 00:00:26;;;;;;;58.20;8.77;;;;;;;;;;5072126;28;20032;-44
2023/05/05 00:02:53;;;;;;;47.42;7.68;;;;;;;;;;5072006;28;20150;-44
2023/05/05 00:05:20;;;;;;;66.82;8.63;;;;;;;;;;5070521;28;20032;-43
2023/05/05 00:07:47;;;;;;;61.45;9.90;;;;;;;;;;5059879;28;20044;-44
2023/05/05 00:10:14;;;;;;;89.50;11.38;;;;;;;;;;5071895;28;20055;-46
2023/05/05 00:12:41;;;;;;;63.33;9.45;;;;;;;;;;5070826;28;20036;-45
2023/05/05 00:15:08;;;;;;;68.72;10.50;;;;;;;;;;5070747;28;20033;-45
2023/05/05 00:17:35;;;;;;;64.30;10.82;;;;;;;;;;5070813;28;20044;-47
2023/05/05 00:20:02;;;;;;;90.88;11.38;;;;;;;;;;5072237;28;20089;-45
2023/05/05 00:22:29;;;;;;;70.20;11.25;;;;;;;;;;5058789;28;20518;-45
2023/05/05 00:24:56;;;;;;;62.38;9.00;;;;;;;;;;5071797;28;20036;-49
2023/05/05 00:27:23;;;;;;;56.78;10.82;;;;;;;;;;5071381;28;20559;-48
2023/05/05 00:29:50;;;;;;;67.28;11.32;;;;;;;;;;5071671;28;20028;-45
2023/05/05 00:32:17;;;;;;;70.13;11.23;;;;;;;;;;5071536;28;20036;-48
2023/05/05 00:34:44;;;;;;;74.80;12.38;;;;;;;;;;5064585;28;20119;-45
2023/05/05 00:37:11;;;;;;;81.70;12.05;;;;;;;;;;5065381;28;20032;-47
2023/05/05 00:39:38;;;;;;;79.15;12.52;;;;;;;;;;5068151;28;20490;-47
2023/05/05 00:42:06;;;;;;;80.05;13.35;;;;;;;;;;5062142;28;20907;-47
2023/05/05 00:44:35;;;;;;;73.93;12.30;;;;;;;;;;5071348;28;20039;-47
2023/05/05 00:47:03;;;;;;;80.07;13.23;;;;;;;;;;5060288;28;20029;-45
2023/05/05 00:49:30;;;;;;;82.70;16.90;;;;;;;;;;5069963;28;20076;-48
2023/05/05 00:51:57;;;;;;;82.30;19.75;;;;;;;;;;5071394;28;20533;-48
2023/05/05 00:54:24;;;;;;;96.72;24.17;;;;;;;;;;5050533;28;20076;-47
2023/05/05 00:56:52;;;;;;;104.53;26.33;;;;;;;;;;5051687;28;20048;-46
2023/05/05 00:59:19;;;;;;;104.55;28.23;;;;;;;;;;5051640;28;20024;-46
2023/05/05 01:01:46;;;;;;;108.13;26.13;;;;;;;;;;5051603;28;20033;-45
2023/05/05 01:04:13;;;;;;;100.43;26.88;;;;;;;;;;5051532;28;20025;-45
2023/05/05 01:06:58;;;;;;;116.45;26.48;;;;;;;;;;5051374;28;20122;-46
2023/05/05 01:09:40;;;;;;;113.45;26.63;;;;;;;;;;5051272;28;20418;-49
2023/05/05 01:12:18;;;;;;;108.38;26.50;;;;;;;;;;5051554;28;20078;-47
2023/05/05 01:14:50;;;;;;;101.60;26.85;;;;;;;;;;5051188;28;20552;-45
2023/05/05 01:17:18;;;;;;;92.78;24.05;;;;;;;;;;5061981;28;20037;-47
2023/05/05 01:20:14;;;;;;;106.40;25.95;;;;;;;;;;5071298;28;20036;-48
2023/05/05 01:22:46;;;;;;;99.38;24.52;;;;;;;;;;4997292;28;20054;-47
2023/05/05 01:25:32;;;;;;;98.45;23.88;;;;;;;;;;5064761;28;20029;-47
2023/05/05 01:28:19;;;;;;;96.97;23.25;;;;;;;;;;5071025;28;20040;-48
2023/05/05 01:30:58;;;;;;;86.85;22.35;;;;;;;;;;5071233;28;20029;-47
2023/05/05 01:33:27;;;;;;;89.90;22.10;;;;;;;;;;5070947;28;20775;-46
2023/05/05 01:35:56;;;;;;;96.38;22.00;;;;;;;;;;5071123;28;20065;-45
2023/05/05 01:38:25;;;;;;;87.18;20.80;;;;;;;;;;5071108;28;20036;-46
2023/05/05 01:40:56;;;;;;;88.10;21.33;;;;;;;;;;5071238;28;20028;-46
2023/05/05 01:43:23;;;;;;;96.63;20.75;;;;;;;;;;5070896;28;20036;-45
2023/05/05 01:45:51;;;;;;;91.25;20.50;;;;;;;;;;5070200;28;20032;-46
2023/05/05 01:48:19;;;;;;;93.47;21.00;;;;;;;;;;5070321;28;20544;-46
2023/05/05 01:50:48;;;;;;;96.43;20.90;;;;;;;;;;5068146;28;20036;-45
2023/05/05 01:53:16;;;;;;;85.10;20.65;;;;;;;;;;5070085;28;20094;-45
2023/05/05 01:55:43;;;;;;;98.35;22.15;;;;;;;;;;5069677;28;20392;-46
2023/05/05 01:58:11;;;;;;;80.68;19.15;;;;;;;;;;5069715;28;20025;-46
2023/05/05 02:00:38;;;;;;;84.55;18.55;;;;;;;;;;5070298;28;20041;-47
2023/05/05 02:03:06;;;;;;;81.03;19.13;;;;;;;;;;5069615;28;20044;-46
2023/05/05 02:05:33;;;;;;;80.47;19.42;;;;;;;;;;5069813;28;20029;-45
2023/05/05 02:08:01;;;;;;;83.93;19.17;;;;;;;;;;5073265;28;20044;-45
2023/05/05 02:10:28;;;;;;;84.10;18.90;;;;;;;;;;5073302;28;20477;-47
2023/05/05 02:12:56;;;;;;;82.07;18.88;;;;;;;;;;5073003;28;20040;-47
2023/05/05 02:15:24;;;;;;;66.22;17.95;;;;;;;;;;5073951;28;20040;-46
2023/05/05 02:17:51;;;;;;;76.03;18.65;;;;;;;;;;5074568;28;20032;-45
2023/05/05 02:20:19;;;;;;;74.63;18.70;;;;;;;;;;5074646;28;20379;-45
2023/05/05 02:22:46;;;;;;;63.25;17.33;;;;;;;;;;5074345;28;20536;-45
2023/05/05 02:25:14;;;;;;;67.93;17.67;;;;;;;;;;5074645;28;20035;-45
2023/05/05 02:27:43;;;;;;;66.78;17.48;;;;;;;;;;5074659;28;20363;-45
2023/05/05 02:30:11;;;;;;;65.78;17.92;;;;;;;;;;5074704;28;20024;-46
2023/05/05 02:32:40;;;;;;;65.57;17.40;;;;;;;;;;5074539;28;20040;-45
2023/05/05 02:35:10;;;;;;;67.47;17.23;;;;;;;;;;5074150;28;20395;-45
2023/05/05 02:37:38;;;;;;;73.25;17.95;;;;;;;;;;5074506;28;20102;-45
2023/05/05 02:40:07;;;;;;;63.20;17.17;;;;;;;;;;5074500;28;20028;-46
2023/05/05 02:42:39;;;;;;;55.13;16.55;;;;;;;;;;5074406;28;20085;-45
2023/05/05 02:45:06;;;;;;;;;;;;;;;;;;5074730;28;20024;-45
2023/05/05 02:47:36;;;;;;;51.10;15.80;;;;;;;;;;5074107;28;19908;-46
2023/05/05 02:50:04;;;;;;;55.97;15.13;;;;;;;;;;5074348;28;20028;-47
2023/05/05 02:52:32;;;;;;;61.42;15.43;;;;;;;;;;5074071;28;20127;-45
2023/05/05 02:54:59;;;;;;;57.78;15.93;;;;;;;;;;5073993;28;20032;-46
2023/05/05 02:57:38;;;;;;;54.13;15.13;;;;;;;;;;5074111;28;20028;-46
2023/05/05 03:00:15;;;;;;;59.20;15.32;;;;;;;;;;5073493;28;20394;-45
2023/05/05 03:03:02;;;;;;;59.33;15.88;;;;;;;;;;5073873;28;20035;-45
2023/05/05 03:05:33;;;;;;;57.60;15.32;;;;;;;;;;5066922;28;20143;-45
2023/05/05 03:08:26;;;;;;;51.78;14.65;;;;;;;;;;5074027;28;20502;-46
2023/05/05 03:10:57;;;;;;;49.47;14.80;;;;;;;;;;5072028;28;20055;-45
2023/05/05 03:13:26;;;;;;;55.63;15.02;;;;;;;;;;5073935;28;20043;-46
2023/05/05 03:15:53;;;;;;;51.67;15.65;;;;;;;;;;5073657;28;20570;-46
2023/05/05 03:18:22;;;;;;;48.25;14.90;;;;;;;;;;5072735;28;20029;-46
2023/05/05 03:20:49;;;;;;;50.15;14.88;;;;;;;;;;5073867;28;20056;-46
2023/05/05 03:23:19;;;;;;;48.50;14.27;;;;;;;;;;5073769;28;20502;-45
2023/05/05 03:25:50;;;;;;;44.05;13.98;;;;;;;;;;5073552;28;20449;-46
2023/05/05 03:28:18;;;;;;;44.83;13.80;;;;;;;;;;5073761;28;20035;-46
2023/05/05 03:30:45;;;;;;;50.90;13.68;;;;;;;;;;5073523;28;20043;-45
2023/05/05 03:33:12;;;;;;;46.65;13.90;;;;;;;;;;5073538;28;20032;-45
2023/05/05 03:35:38;;;;;;;49.15;14.65;;;;;;;;;;5073473;28;20483;-46
2023/05/05 03:38:05;;;;;;;44.80;13.30;;;;;;;;;;5073467;28;20035;-46
2023/05/05 03:40:32;;;;;;;49.08;14.80;;;;;;;;;;5073309;28;20395;-45
2023/05/05 03:43:00;;;;;;;38.88;13.30;;;;;;;;;;5073373;28;20522;-47
2023/05/05 03:45:27;;;;;;;44.15;13.48;;;;;;;;;;5073117;28;20028;-45
2023/05/05 03:47:54;;;;;;;43.67;14.20;;;;;;;;;;5073219;28;20025;-45
2023/05/05 03:50:23;;;;;;;39.00;12.60;;;;;;;;;;5053056;28;20776;-47
2023/05/05 03:52:50;;;;;;;37.95;12.52;;;;;;;;;;5053270;28;20048;-47
2023/05/05 03:55:17;;;;;;;40.13;13.25;;;;;;;;;;5053081;28;20025;-47
2023/05/05 03:57:44;;;;;;;43.22;13.98;;;;;;;;;;5053182;28;20095;-47
2023/05/05 04:00:12;;;;;;;37.83;12.82;;;;;;;;;;5052914;28;20035;-47
2023/05/05 04:02:38;;;;;;;43.50;12.90;;;;;;;;;;5053076;28;20106;-47
2023/05/05 04:05:05;;;;;;;40.10;11.95;;;;;;;;;;5052870;28;20029;-47
2023/05/05 04:07:32;;;;;;;39.28;12.32;;;;;;;;;;5052829;28;20029;-47
2023/05/05 04:09:59;;;;;;;41.03;12.85;;;;;;;;;;5052657;28;20053;-47
2023/05/05 04:12:26;;;;;;;42.58;13.75;;;;;;;;;;5052774;28;20505;-47
2023/05/05 04:14:53;;;;;;;40.47;12.40;;;;;;;;;;5052740;28;20127;-47
2023/05/05 04:17:20;;;;;;;39.17;12.85;;;;;;;;;;5052731;28;20075;-47
2023/05/05 04:19:47;;;;;;;38.45;12.55;;;;;;;;;;5052637;28;20550;-47
2023/05/05 04:22:14;;;;;;;42.97;12.45;;;;;;;;;;5052548;28;20068;-47
2023/05/05 04:24:41;;;;;;;35.70;12.18;;;;;;;;;;5052549;28;20049;-47
2023/05/05 04:27:08;;;;;;;32.15;12.18;;;;;;;;;;5052515;28;20029;-47
2023/05/05 04:29:35;;;;;;;31.23;12.18;;;;;;;;;;5052251;28;20075;-47
2023/05/05 04:32:02;;;;;;;34.20;11.23;;;;;;;;;;5051982;28;20094;-47
2023/05/05 04:34:29;;;;;;;33.83;11.73;;;;;;;;;;5052121;28;20471;-47
2023/05/05 04:36:56;;;;;;;29.88;11.48;;;;;;;;;;5052312;28;20013;-47
2023/05/05 04:39:23;;;;;;;33.78;11.90;;;;;;;;;;5052308;28;20021;-47
2023/05/05 04:41:50;;;;;;;33.83;12.02;;;;;;;;;;5052264;28;20032;-47
2023/05/05 04:44:17;;;;;;;30.73;11.05;;;;;;;;;;5052014;28;20471;-47
2023/05/05 04:46:44;;;;;;;34.72;11.40;;;;;;;;;;5052104;28;20057;-47
2023/05/05 04:49:11;;;;;;;36.33;11.35;;;;;;;;;;5052149;28;20025;-47
2023/05/05 04:51:41;;;;;;;28.83;10.85;;;;;;;;;;5052135;28;20032;-47
2023/05/05 04:54:08;;;;;;;33.08;11.50;;;;;;;;;;5051812;28;20480;-47
2023/05/05 04:56:35;;;;;;;35.55;11.43;;;;;;;;;;5051909;28;20489;-48
2023/05/05 04:59:02;;;;;;;31.90;11.07;;;;;;;;;;5051813;28;20033;-47
2023/05/05 05:01:30;;;;;;;35.92;11.05;;;;;;;;;;5051886;28;20017;-47
2023/05/05 05:03:57;;;;;;;35.47;11.40;;;;;;;;;;5051702;28;20036;-47
2023/05/05 05:06:24;;;;;;;33.55;11.25;;;;;;;;;;5051688;28;20021;-47
2023/05/05 05:08:51;;;;;;;31.42;10.63;;;;;;;;;;5051647;28;20036;-47
2023/05/05 05:11:18;;;;;;;28.40;10.75;;;;;;;;;;5051759;28;20128;-47
2023/05/05 05:13:45;;;;;;;32.22;10.77;;;;;;;;;;5051566;28;20036;-47
2023/05/05 05:16:12;;;;;;;28.00;10.77;;;;;;;;;;5051762;28;20574;-47
2023/05/05 05:18:39;;;;;;;33.75;11.27;;;;;;;;;;5051595;28;20021;-47
2023/05/05 05:21:06;;;;;;;28.65;9.90;;;;;;;;;;5051474;28;20466;-47
2023/05/05 05:23:34;;;;;;;28.75;10.00;;;;;;;;;;5051654;28;20090;-47
2023/05/05 05:26:00;;;;;;;25.10;10.07;;;;;;;;;;5051605;28;20021;-47
2023/05/05 05:28:27;;;;;;;25.23;9.70;;;;;;;;;;5051541;28;20025;-46
2023/05/05 05:30:54;;;;;;;28.00;10.00;;;;;;;;;;5051527;28;20025;-47
2023/05/05 05:33:21;;;;;;;32.22;10.30;;;;;;;;;;5051493;28;20029;-47
2023/05/05 05:35:48;;;;;;;22.55;9.43;;;;;;;;;;5051401;28;20032;-47
2023/05/05 05:38:16;;;;;;;31.52;9.73;;;;;;;;;;5051532;28;20379;-47
2023/05/05 05:40:43;;;;;;;25.58;10.25;;;;;;;;;;5053257;28;20029;-47
2023/05/05 05:43:10;;;;;;;25.30;9.82;;;;;;;;;;5058036;28;20072;-47
2023/05/05 05:45:37;;;;;;;25.77;9.65;;;;;;;;;;5057997;28;20104;-48
2023/05/05 05:48:04;;;;;;;26.17;9.60;;;;;;;;;;5058003;28;20123;-47
2023/05/05 05:50:31;;;;;;;25.48;9.65;;;;;;;;;;5057995;28;20025;-47
2023/05/05 05:52:58;;;;;;;22.17;9.32;;;;;;;;;;5057908;28;20041;-47
2023/05/05 05:55:25;;;;;;;24.58;9.85;;;;;;;;;;5057848;28;20029;-47
2023/05/05 05:57:51;;;;;;;24.42;8.80;;;;;;;;;;5058044;28;20028;-48
2023/05/05 06:00:19;;;;;;;30.85;9.93;;;;;;;;;;5058010;28;20025;-47
2023/05/05 06:02:46;;;;;;;24.63;8.73;;;;;;;;;;5074175;28;20040;-47
2023/05/05 06:05:13;;;;;;;26.27;9.13;;;;;;;;;;5077874;28;20566;-47
2023/05/05 06:07:39;;;;;;;24.23;9.70;;;;;;;;;;5077929;28;20035;-47
2023/05/05 06:10:07;;;;;;;19.35;8.38;;;;;;;;;;5090066;28;20048;-48
2023/05/05 06:12:34;;;;;;;23.52;9.15;;;;;;;;;;5098143;28;20027;-46
2023/05/05 06:15:01;;;;;;;22.75;8.82;;;;;;;;;;5097971;28;20028;-47
2023/05/05 06:17:28;;;;;;;21.98;8.63;;;;;;;;;;5097047;28;20024;-47
2023/05/05 06:19:55;;;;;;;23.40;8.63;;;;;;;;;;5098005;28;20024;-47
2023/05/05 06:22:22;;;;;;;23.52;8.95;;;;;;;;;;5098090;28;20016;-47
2023/05/05 06:24:49;;;;;;;18.35;7.90;;;;;;;;;;5098028;28;20095;-47
2023/05/05 06:27:16;;;;;;;20.02;8.18;;;;;;;;;;5097989;28;20073;-47
2023/05/05 06:29:43;;;;;;;19.23;7.70;;;;;;;;;;5098013;28;20052;-47
2023/05/05 06:32:11;;;;;;;20.38;8.73;;;;;;;;;;5097922;28;20576;-47
2023/05/05 06:34:38;;;;;;;19.08;8.00;;;;;;;;;;5097662;28;20119;-47
2023/05/05 06:37:05;;;;;;;21.67;8.10;;;;;;;;;;5097965;28;20030;-47
2023/05/05 06:39:32;;;;;;;21.17;8.27;;;;;;;;;;5097882;28;20073;-48
2023/05/05 06:41:59;;;;;;;15.95;7.50;;;;;;;;;;5097892;28;20513;-47
2023/05/05 06:44:26;;;;;;;17.30;7.60;;;;;;;;;;5097626;28;20012;-47
2023/05/05 06:46:53;;;;;;;18.95;7.65;;;;;;;;;;5097991;28;20041;-49
2023/05/05 06:49:20;;;;;;;19.33;7.75;;;;;;;;;;5097830;28;20432;-47
2023/05/05 06:51:47;;;;;;;17.92;7.45;;;;;;;;;;5097234;28;20073;-46
2023/05/05 06:54:14;;;;;;;18.80;7.95;;;;;;;;;;5094431;28;20058;-47
2023/05/05 06:56:41;;;;;;;20.40;7.82;;;;;;;;;;5094528;28;20017;-47
2023/05/05 06:59:08;;;;;;;15.95;7.28;;;;;;;;;;5094526;28;20478;-47
2023/05/05 07:01:35;;;;;;;17.48;7.50;;;;;;;;;;5094397;28;20028;-47
2023/05/05 07:04:02;;;;;;;17.35;7.40;;;;;;;;;;5094341;28;20055;-47
2023/05/05 07:06:30;;;;;;;18.77;7.57;;;;;;;;;;5094368;28;20031;-47
2023/05/05 07:08:57;;;;;;;16.88;7.18;;;;;;;;;;5093955;28;20028;-47
2023/05/05 07:11:24;;;;;;;16.75;6.90;;;;;;;;;;5094280;28;20081;-47
2023/05/05 07:13:51;;;;;;;17.50;6.75;;;;;;;;;;5094100;28;20028;-47
2023/05/05 07:16:18;;;;;;;15.80;7.20;;;;;;;;;;5094179;28;20024;-47
2023/05/05 07:19:10;;;;;;;18.10;6.68;;;;;;;;;;5197875;22;20028;31
2023/05/05 07:21:38;;;;;;;17.08;6.90;;;;;;;;;;5031589;28;20033;-34
2023/05/05 07:24:05;;;;;;;20.33;6.82;;;;;;;;;;5034474;28;20041;-35
2023/05/05 07:26:32;;;;;;;20.67;7.15;;;;;;;;;;5033916;28;20109;-35
2023/05/05 07:28:59;;;;;;;15.35;7.15;;;;;;;;;;5033828;28;20107;-34
2023/05/05 07:31:26;;;;;;;14.45;6.43;;;;;;;;;;5033774;28;20036;-35
2023/05/05 07:33:53;;;;;;;17.35;6.82;;;;;;;;;;5033624;28;20061;-35
2023/05/05 07:36:21;;;;;;;13.60;6.30;;;;;;;;;;5033608;28;20034;-34
2023/05/05 07:38:48;;;;;;;17.60;7.20;;;;;;;;;;5033518;28;20026;-35
2023/05/05 07:41:14;;;;;;;13.40;6.38;;;;;;;;;;5033587;28;20033;-35
2023/05/05 07:43:41;;;;;;;16.65;6.30;;;;;;;;;;5033554;28;20057;-34
2023/05/05 07:46:08;;;;;;;13.45;6.18;;;;;;;;;;5033399;28;20100;-35
2023/05/05 07:48:40;;;;;;;13.07;6.15;;;;;;;;;;5033332;28;20051;-35
2023/05/05 07:51:07;;;;;;;14.13;6.32;;;;;;;;;;5033257;28;20037;-35
2023/05/05 07:53:34;;;;;;;14.50;6.13;;;;;;;;;;5033181;28;20104;-35
2023/05/05 07:56:00;;;;;;;13.10;5.70;;;;;;;;;;5033365;28;20033;-34
2023/05/05 07:58:27;;;;;;;17.45;6.43;;;;;;;;;;5033198;28;20053;-35
2023/05/05 08:00:54;;;;;;;16.50;5.95;;;;;;;;;;5033093;28;20839;-34
2023/05/05 08:03:23;;;;;;;11.95;5.80;;;;;;;;;;5032686;28;20038;-35
2023/05/05 08:05:50;;;;;;;13.32;5.80;;;;;;;;;;5033115;28;20029;-34
2023/05/05 08:08:17;;;;;;;14.82;6.43;;;;;;;;;;5048595;28;20029;-36
2023/05/05 08:10:44;;;;;;;10.82;5.55;;;;;;;;;;5032931;28;20032;-34
2023/05/05 08:13:11;;;;;;;10.95;5.95;;;;;;;;;;5032943;28;20452;-34
2023/05/05 08:15:38;;;;;;;17.10;5.72;;;;;;;;;;5032968;28;20112;-35
2023/05/05 08:18:05;;;;;;;13.50;5.93;;;;;;;;;;5047986;28;20025;-35
2023/05/05 08:20:32;;;;;;;11.93;5.80;;;;;;;;;;5032514;28;20045;-34
2023/05/05 08:22:59;;;;;;;11.70;5.18;;;;;;;;;;5032730;28;20037;-34
2023/05/05 08:25:26;;;;;;;14.02;5.35;;;;;;;;;;5032656;28;20060;-35
2023/05/05 08:27:53;;;;;;;11.10;5.13;;;;;;;;;;5032701;28;20029;-34
2023/05/05 08:30:21;;;;;;;15.82;5.88;;;;;;;;;;5032467;28;20068;-35
2023/05/05 08:32:48;;;;;;;11.25;5.38;;;;;;;;;;5032563;28;20075;-35
2023/05/05 08:35:15;;;;;;;15.30;5.15;;;;;;;;;;5032518;28;20369;-35
2023/05/05 08:37:42;;;;;;;11.68;5.20;;;;;;;;;;5032438;28;20034;-34
2023/05/05 08:40:13;;;;;;;11.65;5.13;;;;;;;;;;5032394;28;20025;-34
2023/05/05 08:42:40;;;;;;;14.23;5.60;;;;;;;;;;5032315;28;20064;-35
2023/05/05 08:45:08;;;;;;;11.98;5.40;;;;;;;;;;5031076;28;20030;-35
2023/05/05 08:47:36;;;;;;;10.32;4.80;;;;;;;;;;5032381;28;20017;-35
2023/05/05 08:50:04;;;;;;;14.18;5.78;;;;;;;;;;5032173;28;20053;-35
2023/05/05 08:52:44;;;;;;;9.85;4.85;;;;;;;;;;5031991;28;20522;-35
2023/05/05 08:55:11;;;;;;;9.55;4.65;;;;;;;;;;5032191;28;20056;-35
2023/05/05 08:57:46;;;;;;;11.73;4.55;;;;;;;;;;5032118;28;20388;-35
2023/05/05 09:00:14;;;;;;;11.52;5.07;;;;;;;;;;5032026;28;20034;-34
2023/05/05 09:02:42;;;;;;;12.45;4.82;;;;;;;;;;5032098;28;20428;-35
2023/05/05 09:05:10;;;;;;;13.43;4.80;;;;;;;;;;5032091;28;20562;-35
2023/05/05 09:07:40;;;;;;;10.55;4.50;;;;;;;;;;5032010;28;20079;-34
2023/05/05 09:10:10;;;;;;;10.82;5.00;;;;;;;;;;5030449;28;20048;-34
2023/05/05 09:12:41;;;;;;;11.45;4.75;;;;;;;;;;5031495;28;20029;-35
2023/05/05 09:15:12;;;;;;;10.70;4.43;;;;;;;;;;5030860;28;20155;-36
2023/05/05 09:17:40;;;;;;;10.57;4.90;;;;;;;;;;5031617;28;20103;-34
2023/05/05 09:20:13;;;;;;;12.30;4.60;;;;;;;;;;5021273;28;20076;-36
2023/05/05 09:22:42;;;;;;;7.68;3.92;;;;;;;;;;5011986;28;20030;-36
2023/05/05 09:25:10;;;;;;;13.63;4.50;;;;;;;;;;5011517;28;20030;-35
2023/05/05 09:27:41;;;;;;;13.80;4.72;;;;;;;;;;5010890;28;20574;-35
2023/05/05 09:30:09;;;;;;;11.25;4.57;;;;;;;;;;5021281;28;20078;-35
2023/05/05 09:32:49;;;;;;;8.52;4.28;;;;;;;;;;5020320;28;20452;-35
2023/05/05 09:35:17;;;;;;;10.88;4.63;;;;;;;;;;5025659;28;20037;-34
2023/05/05 09:37:44;;;;;;;8.65;3.90;;;;;;;;;;5016845;28;20030;-36
2023/05/05 09:40:13;;;;;;;10.75;4.38;;;;;;;;;;5009936;28;20042;-36
2023/05/05 09:42:40;;;;;;;9.98;4.35;;;;;;;;;;5017941;28;20036;-35
2023/05/05 09:45:19;;;;;;;13.50;4.40;;;;;;;;;;5024841;28;20022;-36
2023/05/05 09:47:47;;;;;;;12.15;4.30;;;;;;;;;;5030698;28;20056;-37
2023/05/05 09:50:20;;;;;;;13.98;3.97;;;;;;;;;;5031354;28;20022;-36
2023/05/05 09:53:02;;;;;;;13.70;4.35;;;;;;;;;;5031309;28;20042;-36
2023/05/05 09:55:30;;;;;;;11.05;4.40;;;;;;;;;;5031466;28;20091;-36
2023/05/05 09:57:57;;;;;;;12.65;4.43;;;;;;;;;;5031344;28;20057;-36
2023/05/05 10:00:38;;;;;;;8.55;4.15;;;;;;;;;;5031303;28;20092;-36
2023/05/05 10:03:05;;;;;;;10.38;4.07;;;;;;;;;;5031580;28;20430;-36
2023/05/05 10:05:32;;;;;;;12.90;4.47;;;;;;;;;;5031271;28;20025;-36
2023/05/05 10:08:12;;;;;;;13.32;4.65;;;;;;;;;;5016010;28;20041;-35
2023/05/05 10:10:46;;;;;;;11.27;5.28;;;;;;;;;;5007984;28;20041;-35
2023/05/05 10:13:14;;;;;;;14.40;5.07;;;;;;;;;;5010618;28;20767;-34
2023/05/05 10:15:43;;;;;;;19.67;5.22;;;;;;;;;;5010722;28;20074;-34
2023/05/05 10:18:10;;;;;;;15.75;4.70;;;;;;;;;;5010376;28;20022;-36
2023/05/05 10:20:38;;;;;;;15.18;4.85;;;;;;;;;;5003515;28;20096;-39
2023/05/05 10:23:08;;;;;;;12.95;4.07;;;;;;;;;;5010278;28;20389;-38
2023/05/05 10:25:38;;;;;;;17.33;4.88;;;;;;;;;;5010582;28;20034;-38
2023/05/05 10:28:06;;;;;;;12.70;4.57;;;;;;;;;;5012365;28;20798;-41
2023/05/05 10:30:36;;;;;;;14.75;4.60;;;;;;;;;;5012757;28;20026;-36
2023/05/05 10:33:16;;;;;;;15.70;4.63;;;;;;;;;;5014231;28;20127;-37
2023/05/05 10:35:44;;;;;;;14.77;4.32;;;;;;;;;;5013568;28;20042;-34
2023/05/05 10:38:12;;;;;;;18.00;4.50;;;;;;;;;;5013634;28;20083;-36
2023/05/05 10:40:44;;;;;;;17.08;4.03;;;;;;;;;;5013637;28;20504;-35
2023/05/05 10:43:11;;;;;;;12.18;3.92;;;;;;;;;;5034762;28;20072;-35
2023/05/05 10:45:39;;;;;;;12.65;4.20;;;;;;;;;;5032451;28;20112;-36
2023/05/05 10:48:08;;;;;;;15.25;4.68;;;;;;;;;;5033582;28;20021;-36
2023/05/05 10:50:50;;;;;;;17.85;4.10;;;;;;;;;;5033515;28;20497;-35
2023/05/05 10:53:17;;;;;;;25.17;4.85;;;;;;;;;;5032227;28;20112;-37
2023/05/05 10:56:14;;;;;;;20.60;6.10;;;;;;;;;;5033191;28;20091;-35
2023/05/05 10:58:41;;;;;;;23.80;5.93;;;;;;;;;;5020459;28;20535;-35
2023/05/05 11:01:08;;;;;;;24.40;6.03;;;;;;;;;;5032700;28;20055;-34
2023/05/05 11:03:35;;;;;;;19.63;5.80;;;;;;;;;;5031113;28;20597;-34
2023/05/05 11:06:08;;;;;;;20.05;5.60;;;;;;;;;;5033412;28;20140;-35
2023/05/05 11:08:35;;;;;;;27.42;5.55;;;;;;;;;;5033240;28;20064;-35
2023/05/05 11:11:02;;;;;;;24.45;6.68;;;;;;;;;;5033225;28;20029;-34
2023/05/05 11:13:30;;;;;;;35.38;6.63;;;;;;;;;;5030863;28;20030;-35
2023/05/05 11:15:57;;;;;;;18.90;4.97;;;;;;;;;;5029813;28;20041;-35
2023/05/05 11:18:36;;;;;;;52.65;8.23;;;;;;;;;;5031559;28;20052;-34
2023/05/05 11:21:16;;;;;;;35.85;5.78;;;;;;;;;;5030885;28;20115;-38
2023/05/05 11:23:43;;;;;;;57.40;6.15;;;;;;;;;;5031546;28;20053;-41
2023/05/05 11:26:11;;;;;;;56.40;6.85;;;;;;;;;;5028836;28;20037;-44
2023/05/05 11:28:56;;;;;;;61.65;6.72;;;;;;;;;;5031710;28;20048;-43
2023/05/05 11:31:23;;;;;;;53.22;8.02;;;;;;;;;;5031324;28;20029;-42
2023/05/05 11:33:51;;;;;;;40.72;6.47;;;;;;;;;;5031597;28;20033;-41
2023/05/05 11:36:19;;;;;;;35.15;5.60;;;;;;;;;;5031178;28;20036;-42
2023/05/05 11:39:11;;;;;;;41.63;6.30;;;;;;;;;;5030300;28;20064;-39
2023/05/05 11:42:01;;;;;;;42.80;7.30;;;;;;;;;;5031550;28;20022;-40
2023/05/05 11:44:32;;;;;;;71.13;9.98;;;;;;;;;;5022562;28;20522;-39
2023/05/05 11:46:59;;;;;;;57.38;8.10;;;;;;;;;;5031454;28;20033;-40
2023/05/05 11:49:26;;;;;;;55.63;8.82;;;;;;;;;;5031387;28;20510;-44
2023/05/05 11:51:57;;;;;;;40.38;6.63;;;;;;;;;;5032255;28;20091;-43
2023/05/05 11:54:24;;;;;;;48.22;7.43;;;;;;;;;;5032522;28;20098;-40
2023/05/05 11:56:55;;;;;;;56.50;8.30;;;;;;;;;;5032385;28;20095;-40
2023/05/05 11:59:22;;;;;;;52.00;8.32;;;;;;;;;;5033021;28;20022;-41
2023/05/05 12:01:49;;;;;;;50.50;8.90;;;;;;;;;;5032900;28;20026;-41
2023/05/05 12:04:17;;;;;;;66.13;11.02;;;;;;;;;;5032860;28;20035;-41
2023/05/05 12:06:45;;;;;;;83.22;11.70;;;;;;;;;;5032969;28;20049;-41
2023/05/05 12:09:18;;;;;;;75.40;11.40;;;;;;;;;;5032679;28;20053;-40
2023/05/05 12:11:51;;;;;;;81.90;11.82;;;;;;;;;;5032729;28;20025;-41
2023/05/05 12:14:18;;;;;;;82.65;11.80;;;;;;;;;;5032686;28;20029;-42
2023/05/05 12:16:57;;;;;;;76.95;10.98;;;;;;;;;;5032734;28;20121;-41
2023/05/05 12:19:29;;;;;;;84.13;11.23;;;;;;;;;;5032395;28;20041;-41
2023/05/05 12:21:56;;;;;;;77.18;11.40;;;;;;;;;;5032583;28;20034;-41
2023/05/05 12:24:23;;;;;;;65.68;10.82;;;;;;;;;;5032639;28;20040;-41
2023/05/05 12:26:50;;;;;;;77.65;11.32;;;;;;;;;;5032661;28;20056;-41
2023/05/05 12:29:28;;;;;;;72.80;10.82;;;;;;;;;;5032279;28;20044;-44
2023/05/05 12:31:56;;;;;;;68.43;10.82;;;;;;;;;;5032392;28;20030;-41
2023/05/05 12:34:23;;;;;;;70.70;11.10;;;;;;;;;;5032199;28;20111;-41
2023/05/05 12:36:50;;;;;;;72.80;12.07;;;;;;;;;;5032442;28;20503;-41
2023/05/05 12:39:17;;;;;;;90.05;12.70;;;;;;;;;;5032238;28;20044;-41
2023/05/05 12:41:44;;;;;;;72.55;11.25;;;;;;;;;;5032260;28;20104;-41
2023/05/05 12:44:11;;;;;;;73.45;11.50;;;;;;;;;;5032289;28;20037;-41
2023/05/05 12:46:45;;;;;;;63.88;10.40;;;;;;;;;;5030669;28;20029;-42
2023/05/05 12:49:12;;;;;;;60.95;10.63;;;;;;;;;;5031990;28;20057;-42
2023/05/05 12:51:39;;;;;;;63.50;10.52;;;;;;;;;;5032018;28;20108;-41
2023/05/05 12:54:07;;;;;;;54.95;10.20;;;;;;;;;;5031994;28;20033;-41
2023/05/05 12:56:37;;;;;;;53.22;9.93;;;;;;;;;;5032040;28;20104;-41
2023/05/05 12:59:11;;;;;;;66.53;10.85;;;;;;;;;;5030873;28;20574;-41
2023/05/05 13:01:51;;;;;;;48.92;8.85;;;;;;;;;;5031995;28;20025;-42
2023/05/05 13:04:19;;;;;;;50.85;8.55;;;;;;;;;;5031940;28;20057;-41
2023/05/05 13:06:47;;;;;;;44.97;8.95;;;;;;;;;;5031822;28;20037;-41
2023/05/05 13:09:32;;;;;;;41.67;7.95;;;;;;;;;;5031746;28;20125;-41
2023/05/05 13:12:01;;;;;;;35.78;7.22;;;;;;;;;;5031521;28;20029;-41
2023/05/05 13:14:29;;;;;;;35.03;7.60;;;;;;;;;;5031424;28;20124;-42
2023/05/05 13:16:56;;;;;;;39.97;6.55;;;;;;;;;;5031328;28;20037;-41
2023/05/05 13:19:23;;;;;;;44.67;6.63;;;;;;;;;;5031151;28;20050;-41
2023/05/05 13:21:57;;;;;;;44.33;7.68;;;;;;;;;;5031388;28;20029;-41
2023/05/05 13:24:25;;;;;;;40.35;7.47;;;;;;;;;;5031571;28;20087;-41
2023/05/05 13:26:52;;;;;;;38.53;7.32;;;;;;;;;;5029828;28;20033;-41
2023/05/05 13:29:19;;;;;;;34.72;7.47;;;;;;;;;;5030811;28;20499;-41
2023/05/05 13:31:46;;;;;;;38.15;6.82;;;;;;;;;;5029813;28;20482;-41
2023/05/05 13:34:13;;;;;;;36.13;7.47;;;;;;;;;;5027276;28;20067;-40
2023/05/05 13:36:40;;;;;;;31.05;6.22;;;;;;;;;;5030261;28;20132;-39
2023/05/05 13:39:07;;;;;;;33.92;6.47;;;;;;;;;;5030065;28;20049;-40
2023/05/05 13:41:34;;;;;;;31.42;6.05;;;;;;;;;;5028648;28;20029;-39
2023/05/05 13:44:01;;;;;;;32.55;7.28;;;;;;;;;;5030106;28;20033;-41
2023/05/05 13:46:28;;;;;;;35.28;6.47;;;;;;;;;;5030463;28;20379;-40
2023/05/05 13:48:55;;;;;;;28.73;5.72;;;;;;;;;;5027738;28;20399;-40
2023/05/05 13:51:22;;;;;;;27.85;6.82;;;;;;;;;;5030532;28;20087;-41
2023/05/05 13:53:49;;;;;;;35.60;6.15;;;;;;;;;;5030423;28;20048;-41
2023/05/05 13:56:17;;;;;;;31.48;5.50;;;;;;;;;;5028970;28;20030;-40
2023/05/05 13:58:45;;;;;;;35.97;5.70;;;;;;;;;;5030024;28;20186;-41
2023/05/05 14:01:12;;;;;;;24.17;5.30;;;;;;;;;;5030529;28;20474;-40
2023/05/05 14:03:39;;;;;;;27.67;5.93;;;;;;;;;;5033868;28;20152;-40
2023/05/05 14:06:07;;;;;;;24.90;4.82;;;;;;;;;;5034503;28;20029;-41
2023/05/05 14:08:34;;;;;;;29.48;5.22;;;;;;;;;;5032043;28;20034;-40
2023/05/05 14:11:02;;;;;;;28.73;5.68;;;;;;;;;;5034704;28;20551;-40
2023/05/05 14:13:29;;;;;;;27.50;5.03;;;;;;;;;;5034481;28;20402;-42
2023/05/05 14:15:57;;;;;;;33.40;4.97;;;;;;;;;;5034017;28;20056;-40
2023/05/05 14:18:25;;;;;;;27.85;4.97;;;;;;;;;;5034394;28;20116;-41
2023/05/05 14:20:52;;;;;;;30.50;5.45;;;;;;;;;;5033871;28;20049;-41
2023/05/05 14:23:19;;;;;;;28.02;4.78;;;;;;;;;;5034331;28;20033;-40
2023/05/05 14:25:46;;;;;;;33.75;4.60;;;;;;;;;;5034669;28;20026;-40
2023/05/05 14:28:13;;;;;;;25.30;4.57;;;;;;;;;;5034239;28;20057;-42
2023/05/05 14:30:40;;;;;;;26.52;4.75;;;;;;;;;;5034557;28;20033;-41
2023/05/05 14:33:07;;;;;;;29.98;4.70;;;;;;;;;;5034195;28;20065;-40